createdAt,value
2017-08-02T00:00:09.828Z,81.82
2017-08-02T00:01:09.847Z,82.31
2017-08-02T00:02:09.891Z,81.92
2017-08-02T00:03:09.912Z,81.92
2017-08-02T00:04:09.925Z,82.5
2017-08-02T00:05:09.962Z,82.21
2017-08-02T00:06:09.674Z,82.21
2017-08-02T00:07:10.016Z,82.69
2017-08-02T00:08:10.047Z,82.89
2017-08-02T00:09:10.075Z,82.89
2017-08-02T00:10:10.086Z,82.69
2017-08-02T00:11:10.133Z,82.69
2017-08-02T00:12:24.745Z,82.98
2017-08-02T00:13:10.172Z,82.89
2017-08-02T00:14:10.203Z,82.6
2017-08-02T00:16:10.261Z,83.37
2017-08-02T00:17:10.275Z,84.05
2017-08-02T00:19:10.334Z,84.1
2017-08-02T00:20:10.365Z,84.1
2017-08-02T00:22:10.112Z,84.3
2017-08-02T00:23:10.449Z,85.26
2017-08-02T00:24:10.473Z,84.97
2017-08-02T00:25:10.498Z,84.97
2017-08-02T00:26:10.521Z,84.58
2017-08-02T00:27:10.554Z,84.97
2017-08-02T00:28:25.174Z,84.68
2017-08-02T00:29:10.605Z,85.36
2017-08-02T00:30:10.625Z,84.97
2017-08-02T00:31:10.650Z,85.06
2017-08-02T00:32:10.685Z,85.64
2017-08-02T00:33:10.721Z,86.22
2017-08-02T00:34:10.727Z,85.55
2017-08-02T00:35:10.763Z,86.03
2017-08-02T00:36:10.793Z,85.74
2017-08-02T00:37:10.817Z,85.45
2017-08-02T00:38:10.849Z,85.84
2017-08-02T00:39:10.881Z,86.42
2017-08-02T00:40:10.893Z,85.74
2017-08-02T00:41:10.914Z,86.03
2017-08-02T00:42:10.957Z,86.22
2017-08-02T00:44:25.603Z,86.22
2017-08-02T00:45:11.029Z,86.42
2017-08-02T00:46:11.061Z,86.42
2017-08-02T00:47:10.776Z,86.42
2017-08-02T00:48:10.802Z,86.32
2017-08-02T00:49:11.137Z,86.61
2017-08-02T00:50:11.162Z,86.9
2017-08-02T00:51:11.187Z,86.22
2017-08-02T00:52:10.900Z,86.42
2017-08-02T00:53:11.244Z,86.9
2017-08-02T00:54:11.276Z,86.71
2017-08-02T00:55:11.310Z,87.09
2017-08-02T00:56:11.321Z,86.52
2017-08-02T00:57:11.349Z,87.58
2017-08-02T00:58:11.371Z,87.44
2017-08-02T00:59:11.403Z,87.19
2017-08-02T01:00:26.024Z,87.38
2017-08-02T01:01:11.451Z,87.15
2017-08-02T01:02:11.492Z,87.19
2017-08-02T01:03:11.508Z,87.53
2017-08-02T01:04:11.529Z,87
2017-08-02T01:07:11.612Z,87.53
2017-08-02T01:09:11.666Z,87.63
2017-08-02T01:10:11.388Z,87.44
2017-08-02T01:11:11.719Z,87.92
2017-08-02T01:12:11.747Z,88.69
2017-08-02T01:13:11.772Z,88.11
2017-08-02T01:14:11.798Z,87.63
2017-08-02T01:15:26.425Z,87.44
2017-08-02T01:16:11.847Z,88.11
2017-08-02T01:17:11.879Z,88.59
2017-08-02T01:18:11.910Z,88.59
2017-08-02T01:19:11.933Z,88.59
2017-08-02T01:20:11.649Z,88.5
2017-08-02T01:21:11.989Z,88.4
2017-08-02T01:22:12.013Z,88.65
2017-08-02T01:23:12.026Z,88.93
2017-08-02T01:24:12.061Z,89.13
2017-08-02T01:25:12.094Z,90
2017-08-02T01:26:12.111Z,89.81
2017-08-02T01:27:12.144Z,90.48
2017-08-02T01:28:12.169Z,90.96
2017-08-02T01:29:12.199Z,89.51
2017-08-02T01:30:12.221Z,89.61
2017-08-02T01:31:12.239Z,89.51
2017-08-02T01:32:12.278Z,89.71
2017-08-02T01:33:12.300Z,90.58
2017-08-02T01:34:12.331Z,90.77
2017-08-02T01:35:12.345Z,90.87
2017-08-02T01:36:12.382Z,90.38
2017-08-02T01:37:12.411Z,90.96
2017-08-02T01:38:12.436Z,90.87
2017-08-02T01:39:12.455Z,90.87
2017-08-02T01:40:12.476Z,91.25
2017-08-02T01:41:12.513Z,90.87
2017-08-02T01:42:12.540Z,90.96
2017-08-02T01:43:12.568Z,91.16
2017-08-02T01:44:12.594Z,90.87
2017-08-02T01:45:12.606Z,90.96
2017-08-02T01:46:12.649Z,90.96
2017-08-02T01:47:27.268Z,90.77
2017-08-02T01:48:12.699Z,90.87
2017-08-02T01:49:12.731Z,90.77
2017-08-02T01:50:12.756Z,91.06
2017-08-02T01:51:12.781Z,91.06
2017-08-02T01:52:12.808Z,91.44
2017-08-02T01:53:12.515Z,91.44
2017-08-02T01:55:12.872Z,91.35
2017-08-02T01:56:12.913Z,92.12
2017-08-02T01:57:12.618Z,91.83
2017-08-02T01:58:12.956Z,91.74
2017-08-02T01:59:12.987Z,91.35
2017-08-02T02:00:13.011Z,91.83
2017-08-02T02:01:13.045Z,91.93
2017-08-02T02:02:13.071Z,91.83
2017-08-02T02:03:27.691Z,91.93
2017-08-02T02:04:13.114Z,91.93
2017-08-02T02:05:13.145Z,92.41
2017-08-02T02:08:13.223Z,92.17
2017-08-02T02:09:13.255Z,92.75
2017-08-02T02:10:13.268Z,92.89
2017-08-02T02:11:13.294Z,92.94
2017-08-02T02:13:13.368Z,93.13
2017-08-02T02:14:13.374Z,93.52
2017-08-02T02:15:13.415Z,93.62
2017-08-02T02:16:13.425Z,93.13
2017-08-02T02:17:13.469Z,93.71
2017-08-02T02:18:13.482Z,93.52
2017-08-02T02:19:28.111Z,94.1
2017-08-02T02:20:13.541Z,93.81
2017-08-02T02:21:13.569Z,94.48
2017-08-02T02:23:13.618Z,94.58
2017-08-02T02:24:13.635Z,94.1
2017-08-02T02:25:13.669Z,94.1
2017-08-02T02:26:13.704Z,94.1
2017-08-02T02:27:13.714Z,93.52
2017-08-02T02:29:13.760Z,94.1
2017-08-02T02:31:13.829Z,94.58
2017-08-02T02:32:13.861Z,95.06
2017-08-02T02:33:13.885Z,95.36
2017-08-02T02:34:13.907Z,95.06
2017-08-02T02:35:28.530Z,95.26
2017-08-02T02:36:13.960Z,94.58
2017-08-02T02:37:13.986Z,94.96
2017-08-02T02:38:13.998Z,95.16
2017-08-02T02:39:13.735Z,94.58
2017-08-02T02:40:14.061Z,95.36
2017-08-02T02:41:14.087Z,94.96
2017-08-02T02:42:14.113Z,95.26
2017-08-02T02:43:14.142Z,95.06
2017-08-02T02:44:14.180Z,95.16
2017-08-02T02:45:14.185Z,95.93
2017-08-02T02:46:14.222Z,95.64
2017-08-02T02:47:14.246Z,96.03
2017-08-02T02:48:14.265Z,95.84
2017-08-02T02:49:14.299Z,95.93
2017-08-02T02:50:28.922Z,96.32
2017-08-02T02:51:14.353Z,96.41
2017-08-02T02:52:14.372Z,96.12
2017-08-02T02:53:14.401Z,96.03
2017-08-02T02:54:14.427Z,96.03
2017-08-02T02:55:14.448Z,96.03
2017-08-02T02:56:14.485Z,95.93
2017-08-02T02:58:14.536Z,96.12
2017-08-02T02:59:14.563Z,96.61
2017-08-02T03:00:14.579Z,96.12
2017-08-02T03:01:14.613Z,96.03
2017-08-02T03:02:14.639Z,95.98
2017-08-02T03:03:14.667Z,96.56
2017-08-02T03:04:14.690Z,96.94
2017-08-02T03:05:14.716Z,96.85
2017-08-02T03:06:14.762Z,96.94
2017-08-02T03:07:14.764Z,96.56
2017-08-02T03:08:14.781Z,96.85
2017-08-02T03:09:14.819Z,96.32
2017-08-02T03:10:14.852Z,96.56
2017-08-02T03:11:14.871Z,96.51
2017-08-02T03:12:14.894Z,96.7
2017-08-02T03:13:14.915Z,96.61
2017-08-02T03:14:14.950Z,96.89
2017-08-02T03:15:14.979Z,96.61
2017-08-02T03:16:14.691Z,96.12
2017-08-02T03:17:14.721Z,96.12
2017-08-02T03:18:14.742Z,96.85
2017-08-02T03:19:14.771Z,96.75
2017-08-02T03:20:15.096Z,96.66
2017-08-02T03:21:15.128Z,96.32
2017-08-02T03:22:29.752Z,96.22
2017-08-02T03:23:14.873Z,96.61
2017-08-02T03:24:15.218Z,95.93
2017-08-02T03:25:15.232Z,96.03
2017-08-02T03:27:15.298Z,96.66
2017-08-02T03:28:15.311Z,96.75
2017-08-02T03:29:15.341Z,96.56
2017-08-02T03:30:15.354Z,96.85
2017-08-02T03:31:15.399Z,97.14
2017-08-02T03:32:15.417Z,97.42
2017-08-02T03:33:15.434Z,97.52
2017-08-02T03:34:15.471Z,98.1
2017-08-02T03:35:15.493Z,97.24
2017-08-02T03:36:15.526Z,97.62
2017-08-02T03:37:15.546Z,97.52
2017-08-02T03:38:30.170Z,97.52
2017-08-02T03:39:15.602Z,97.52
2017-08-02T03:40:15.311Z,97.91
2017-08-02T03:41:15.654Z,97.72
2017-08-02T03:42:15.674Z,97.72
2017-08-02T03:43:15.699Z,98.58
2017-08-02T03:44:15.721Z,98.49
2017-08-02T03:45:15.752Z,98.49
2017-08-02T03:46:15.773Z,98.87
2017-08-02T03:47:15.789Z,98.77
2017-08-02T03:48:15.832Z,98.77
2017-08-02T03:49:15.850Z,98.87
2017-08-02T03:50:15.879Z,98.44
2017-08-02T03:51:15.905Z,98.97
2017-08-02T03:52:15.933Z,98.72
2017-08-02T03:53:15.964Z,98.49
2017-08-02T03:54:30.580Z,98.77
2017-08-02T03:55:15.704Z,98
2017-08-02T03:56:16.029Z,98.49
2017-08-02T03:57:16.060Z,97.33
2017-08-02T03:58:16.084Z,97.91
2017-08-02T03:59:16.119Z,97.91
2017-08-02T04:00:16.145Z,97.72
2017-08-02T04:01:16.165Z,98.1
2017-08-02T04:02:16.187Z,98.1
2017-08-02T04:03:16.205Z,97.81
2017-08-02T04:04:16.257Z,97.52
2017-08-02T04:05:16.258Z,97.24
2017-08-02T04:06:15.981Z,97.14
2017-08-02T04:07:16.008Z,96.56
2017-08-02T04:08:16.347Z,96.85
2017-08-02T04:09:16.369Z,96.66
2017-08-02T04:10:30.994Z,95.89
2017-08-02T04:11:16.426Z,95.93
2017-08-02T04:12:16.450Z,95.93
2017-08-02T04:13:16.467Z,95.54
2017-08-02T04:14:16.493Z,95.64
2017-08-02T04:15:16.524Z,94.87
2017-08-02T04:16:16.547Z,95.16
2017-08-02T04:17:16.586Z,95.54
2017-08-02T04:18:16.605Z,94.96
2017-08-02T04:20:16.655Z,95.36
2017-08-02T04:21:16.677Z,95.01
2017-08-02T04:22:16.697Z,94.87
2017-08-02T04:23:16.736Z,95.01
2017-08-02T04:24:16.759Z,95.26
2017-08-02T04:25:31.381Z,95.01
2017-08-02T04:26:16.814Z,94.24
2017-08-02T04:27:16.845Z,94.15
2017-08-02T04:28:16.864Z,94.15
2017-08-02T04:29:16.883Z,93.28
2017-08-02T04:30:16.929Z,92.7
2017-08-02T04:31:16.948Z,93.8
2017-08-02T04:33:16.989Z,93.18
2017-08-02T04:36:17.074Z,93.37
2017-08-02T04:37:17.090Z,93.71
2017-08-02T04:38:17.121Z,93.37
2017-08-02T04:39:17.145Z,93.57
2017-08-02T04:40:16.867Z,93.13
2017-08-02T04:41:17.208Z,92.7
2017-08-02T04:42:17.235Z,92.84
2017-08-02T04:43:17.255Z,92.46
2017-08-02T04:44:17.273Z,92.65
2017-08-02T04:45:17.306Z,92.99
2017-08-02T04:46:17.341Z,93.37
2017-08-02T04:47:17.365Z,93.28
2017-08-02T04:48:17.391Z,93.37
2017-08-02T04:49:17.418Z,93.28
2017-08-02T04:50:17.436Z,93.47
2017-08-02T04:51:17.458Z,93.95
2017-08-02T04:52:17.184Z,94.05
2017-08-02T04:53:17.521Z,93.76
2017-08-02T04:54:17.552Z,94.05
2017-08-02T04:55:17.573Z,94.15
2017-08-02T04:57:32.224Z,93.76
2017-08-02T04:58:17.640Z,94.53
2017-08-02T04:59:17.677Z,94.78
2017-08-02T05:00:17.400Z,93.76
2017-08-02T05:01:17.734Z,94.05
2017-08-02T05:02:17.756Z,93.66
2017-08-02T05:03:17.788Z,93.47
2017-08-02T05:04:17.806Z,92.89
2017-08-02T05:05:17.832Z,92.7
2017-08-02T05:06:17.870Z,91.88
2017-08-02T05:07:17.880Z,92.16
2017-08-02T05:08:17.905Z,91.11
2017-08-02T05:09:17.948Z,91.68
2017-08-02T05:10:17.968Z,91.78
2017-08-02T05:11:17.999Z,91.39
2017-08-02T05:13:32.647Z,88.64
2017-08-02T05:14:18.077Z,86.41
2017-08-02T05:15:17.792Z,84.42
2017-08-02T05:16:18.129Z,83.59
2017-08-02T05:17:18.162Z,81.7
2017-08-02T05:18:18.184Z,79.6
2017-08-02T05:19:18.213Z,79.16
2017-08-02T05:20:18.246Z,79.93
2017-08-02T05:21:18.269Z,79.99
2017-08-02T05:22:18.304Z,79.6
2017-08-02T05:23:18.332Z,78
2017-08-02T05:24:18.353Z,76.48
2017-08-02T05:25:18.392Z,76.52
2017-08-02T05:26:18.414Z,76.14
2017-08-02T05:27:18.448Z,75.4
2017-08-02T05:28:18.483Z,74.91
2017-08-02T05:29:33.101Z,75.94
2017-08-02T05:30:18.222Z,75.94
2017-08-02T05:31:18.561Z,75.55
2017-08-02T05:32:18.596Z,74.87
2017-08-02T05:33:18.622Z,74.71
2017-08-02T05:34:18.636Z,74.81
2017-08-02T05:35:18.686Z,73.65
2017-08-02T05:36:18.714Z,73.1
2017-08-02T05:37:18.742Z,71.84
2017-08-02T05:38:18.761Z,70.75
2017-08-02T05:39:18.803Z,69.71
2017-08-02T05:40:18.830Z,69.35
2017-08-02T05:41:18.862Z,68.57
2017-08-02T05:42:18.900Z,68.77
2017-08-02T05:43:18.917Z,68.09
2017-08-02T05:44:18.968Z,65.98
2017-08-02T05:45:33.590Z,66.17
2017-08-02T05:46:19.012Z,65.4
2017-08-02T05:47:19.054Z,65.33
2017-08-02T05:48:19.084Z,64.84
2017-08-02T05:49:19.122Z,63.06
2017-08-02T05:50:19.156Z,62.38
2017-08-02T05:51:19.176Z,61.72
2017-08-02T05:52:19.221Z,61.43
2017-08-02T05:53:19.260Z,61.17
2017-08-02T05:54:19.280Z,60.85
2017-08-02T05:55:19.319Z,60.29
2017-08-02T05:56:19.404Z,60.52
2017-08-02T05:57:19.382Z,60.94
2017-08-02T05:58:19.418Z,59.83
2017-08-02T05:59:19.146Z,59.44
2017-08-02T06:00:34.089Z,58.37
2017-08-02T06:01:19.522Z,56.96
2017-08-02T06:02:19.560Z,56.27
2017-08-02T06:03:19.588Z,57.15
2017-08-02T06:04:19.617Z,57.03
2017-08-02T06:05:19.663Z,56.67
2017-08-02T06:06:19.697Z,56.25
2017-08-02T06:07:19.728Z,56.27
2017-08-02T06:09:19.794Z,57.49
2017-08-02T06:10:19.849Z,58.17
2017-08-02T06:11:19.870Z,57.49
2017-08-02T06:12:19.932Z,54.91
2017-08-02T06:13:19.942Z,54.54
2017-08-02T06:14:19.976Z,53.62
2017-08-02T06:15:19.704Z,55.13
2017-08-02T06:16:20.048Z,57.68
2017-08-02T06:17:20.082Z,60.06
2017-08-02T06:18:20.114Z,59.91
2017-08-02T06:19:20.155Z,59.52
2017-08-02T06:20:20.193Z,58.48
2017-08-02T06:21:20.233Z,56.1
2017-08-02T06:22:19.951Z,56.15
2017-08-02T06:23:20.304Z,54.52
2017-08-02T06:24:20.329Z,54.44
2017-08-02T06:25:20.373Z,53.3
2017-08-02T06:26:20.394Z,52.93
2017-08-02T06:27:20.446Z,51.71
2017-08-02T06:28:20.464Z,52
2017-08-02T06:29:20.520Z,53.13
2017-08-02T06:30:20.551Z,53.13
2017-08-02T06:31:20.582Z,53.78
2017-08-02T06:32:35.218Z,54.74
2017-08-02T06:33:20.652Z,55.57
2017-08-02T06:34:20.381Z,56.81
2017-08-02T06:36:20.764Z,58.87
2017-08-02T06:38:20.826Z,58.67
2017-08-02T06:39:20.864Z,57.34
2017-08-02T06:40:20.899Z,55.71
2017-08-02T06:41:20.940Z,54.79
2017-08-02T06:42:20.967Z,54.03
2017-08-02T06:43:21.007Z,53.27
2017-08-02T06:44:21.033Z,54.83
2017-08-02T06:45:21.076Z,55.97
2017-08-02T06:46:21.095Z,57.24
2017-08-02T06:47:21.133Z,58.48
2017-08-02T06:48:35.771Z,57.5
2017-08-02T06:49:21.197Z,57.53
2017-08-02T06:50:21.230Z,59.09
2017-08-02T06:51:20.984Z,59.91
2017-08-02T06:52:21.310Z,59.26
2017-08-02T06:53:21.041Z,59.91
2017-08-02T06:54:21.376Z,60.2
2017-08-02T06:55:21.420Z,60.98
2017-08-02T06:56:21.448Z,61.51
2017-08-02T06:57:21.486Z,62.87
2017-08-02T06:58:21.210Z,63.55
2017-08-02T06:59:21.235Z,64.2
2017-08-02T07:00:21.585Z,65.01
2017-08-02T07:01:21.610Z,64.14
2017-08-02T07:02:21.646Z,64.43
2017-08-02T07:03:21.679Z,64.33
2017-08-02T07:04:36.307Z,65.59
2017-08-02T07:05:21.740Z,63.59
2017-08-02T07:06:21.761Z,64.23
2017-08-02T07:07:21.805Z,65.3
2017-08-02T07:08:21.841Z,65.98
2017-08-02T07:09:21.870Z,65.79
2017-08-02T07:10:21.899Z,65.2
2017-08-02T07:11:21.925Z,64.62
2017-08-02T07:12:21.652Z,65.01
2017-08-02T07:13:21.991Z,64.53
2017-08-02T07:14:22.017Z,64.81
2017-08-02T07:15:22.058Z,66.37
2017-08-02T07:16:22.098Z,65.3
2017-08-02T07:17:22.104Z,65.47
2017-08-02T07:18:22.157Z,64.78
2017-08-02T07:19:22.178Z,64.69
2017-08-02T07:20:36.810Z,64.49
2017-08-02T07:21:22.251Z,63.26
2017-08-02T07:22:22.292Z,60.89
2017-08-02T07:23:22.298Z,59.98
2017-08-02T07:24:22.355Z,60
2017-08-02T07:26:22.450Z,58.97
2017-08-02T07:27:22.438Z,58.31
2017-08-02T07:28:22.460Z,58.67
2017-08-02T07:29:22.494Z,56.85
2017-08-02T07:30:22.530Z,56.95
2017-08-02T07:31:22.564Z,56.68
2017-08-02T07:32:22.596Z,56.07
2017-08-02T07:33:22.632Z,55.8
2017-08-02T07:34:22.667Z,55.12
2017-08-02T07:35:37.291Z,55.93
2017-08-02T07:36:22.730Z,52.95
2017-08-02T07:37:22.754Z,53.08
2017-08-02T07:38:22.795Z,52.1
2017-08-02T07:39:22.812Z,52.42
2017-08-02T07:40:22.852Z,52.42
2017-08-02T07:41:22.898Z,52.71
2017-08-02T07:42:22.917Z,53.17
2017-08-02T07:43:22.963Z,53.93
2017-08-02T07:44:22.683Z,55.24
2017-08-02T07:45:22.708Z,55.44
2017-08-02T07:46:22.746Z,55.61
2017-08-02T07:47:23.088Z,55.32
2017-08-02T07:48:23.123Z,54.75
2017-08-02T07:49:23.151Z,56.58
2017-08-02T07:50:23.212Z,56.95
2017-08-02T07:51:23.225Z,56.95
2017-08-02T07:52:23.242Z,58.25
2017-08-02T07:53:23.290Z,57.57
2017-08-02T07:54:23.308Z,57.79
2017-08-02T07:55:23.358Z,58.94
2017-08-02T07:56:23.376Z,58.45
2017-08-02T07:57:23.424Z,58.48
2017-08-02T07:58:23.449Z,59.42
2017-08-02T07:59:23.166Z,61.11
2017-08-02T08:00:23.516Z,60.5
2017-08-02T08:01:23.549Z,60.82
2017-08-02T08:02:23.277Z,59.75
2017-08-02T08:03:23.607Z,59.75
2017-08-02T08:04:23.647Z,59.49
2017-08-02T08:05:23.677Z,57.67
2017-08-02T08:06:23.707Z,57.57
2017-08-02T08:07:38.344Z,58.25
2017-08-02T08:08:23.769Z,57.37
2017-08-02T08:09:23.807Z,58.06
2017-08-02T08:10:23.838Z,58.25
2017-08-02T08:11:23.563Z,58.15
2017-08-02T08:12:23.897Z,57.09
2017-08-02T08:13:23.932Z,55.51
2017-08-02T08:14:24.019Z,56.16
2017-08-02T08:15:24.008Z,55.22
2017-08-02T08:16:24.023Z,55.8
2017-08-02T08:18:24.098Z,57.79
2017-08-02T08:19:24.117Z,58.45
2017-08-02T08:20:24.165Z,60.31
2017-08-02T08:21:24.185Z,61.64
2017-08-02T08:22:24.225Z,62.68
2017-08-02T08:23:38.856Z,63.75
2017-08-02T08:24:24.287Z,63
2017-08-02T08:25:24.322Z,62.71
2017-08-02T08:26:24.347Z,61.28
2017-08-02T08:27:24.392Z,61.67
2017-08-02T08:28:24.107Z,60.79
2017-08-02T08:29:24.461Z,62.19
2017-08-02T08:30:24.475Z,60.24
2017-08-02T08:31:24.520Z,60.72
2017-08-02T08:32:24.532Z,60.66
2017-08-02T08:34:24.608Z,58.54
2017-08-02T08:35:24.652Z,58.67
2017-08-02T08:36:24.671Z,57.14
2017-08-02T08:37:24.692Z,57.14
2017-08-02T08:38:24.743Z,58.31
2017-08-02T08:39:39.365Z,57.36
2017-08-02T08:40:24.807Z,56.77
2017-08-02T08:41:24.831Z,56.77
2017-08-02T08:42:24.867Z,57.46
2017-08-02T08:43:24.881Z,56.1
2017-08-02T08:44:24.922Z,57.17
2017-08-02T08:45:24.949Z,57.14
2017-08-02T08:46:24.992Z,57.92
2017-08-02T08:47:25.016Z,58.02
2017-08-02T08:48:25.052Z,59.38
2017-08-02T08:49:25.088Z,58.24
2017-08-02T08:50:25.104Z,55.71
2017-08-02T08:51:25.143Z,56.68
2017-08-02T08:52:25.170Z,57.07
2017-08-02T08:53:25.222Z,58.24
2017-08-02T08:54:25.245Z,53.97
2017-08-02T08:55:39.868Z,53.81
2017-08-02T08:56:25.306Z,55
2017-08-02T08:57:25.365Z,53.64
2017-08-02T08:58:25.359Z,53.15
2017-08-02T08:59:25.396Z,53.52
2017-08-02T09:00:25.430Z,53.71
2017-08-02T09:01:25.467Z,52.29
2017-08-02T09:02:25.483Z,51.61
2017-08-02T09:03:25.525Z,50.17
2017-08-02T09:04:25.547Z,51.25
2017-08-02T09:05:25.597Z,50.63
2017-08-02T09:06:25.619Z,50.05
2017-08-02T09:07:25.655Z,51
2017-08-02T09:08:25.686Z,53.03
2017-08-02T09:09:25.707Z,52.15
2017-08-02T09:10:40.349Z,53.97
2017-08-02T09:11:25.782Z,51.43
2017-08-02T09:12:25.818Z,52.41
2017-08-02T09:13:25.848Z,51.53
2017-08-02T09:15:25.904Z,55.02
2017-08-02T09:16:25.949Z,52.78
2017-08-02T09:17:25.974Z,52.02
2017-08-02T09:18:26.013Z,52.37
2017-08-02T09:19:26.037Z,50.34
2017-08-02T09:20:26.085Z,49.21
2017-08-02T09:21:26.108Z,49.73
2017-08-02T09:22:26.136Z,47.81
2017-08-02T09:23:26.160Z,48.23
2017-08-02T09:24:26.191Z,48.23
2017-08-02T09:25:25.922Z,48.03
2017-08-02T09:26:25.958Z,44.26
2017-08-02T09:27:26.305Z,44.18
2017-08-02T09:28:26.326Z,43
2017-08-02T09:29:26.371Z,44.37
2017-08-02T09:30:26.393Z,43.27
2017-08-02T09:31:26.127Z,43.55
2017-08-02T09:32:26.152Z,44.26
2017-08-02T09:33:26.507Z,44.45
2017-08-02T09:34:26.233Z,43.9
2017-08-02T09:35:26.569Z,42.75
2017-08-02T09:36:26.605Z,44.59
2017-08-02T09:37:26.643Z,46.04
2017-08-02T09:38:26.655Z,45.24
2017-08-02T09:39:26.711Z,46.41
2017-08-02T09:40:26.736Z,46
2017-08-02T09:41:26.766Z,46.37
2017-08-02T09:42:41.402Z,47.72
2017-08-02T09:43:26.836Z,48.58
2017-08-02T09:44:26.871Z,47.47
2017-08-02T09:45:26.909Z,47.45
2017-08-02T09:46:26.951Z,48.82
2017-08-02T09:47:26.963Z,48.7
2017-08-02T09:48:26.697Z,49.95
2017-08-02T09:49:27.042Z,51.1
2017-08-02T09:50:26.762Z,50.98
2017-08-02T09:51:26.793Z,52.22
2017-08-02T09:52:27.129Z,52.51
2017-08-02T09:53:27.167Z,52.97
2017-08-02T09:54:27.198Z,53.66
2017-08-02T09:55:26.929Z,54.34
2017-08-02T09:56:27.264Z,55.19
2017-08-02T09:57:27.297Z,54.8
2017-08-02T09:58:41.928Z,54.38
2017-08-02T09:59:27.056Z,55.16
2017-08-02T10:00:27.086Z,53.8
2017-08-02T10:01:27.424Z,53.05
2017-08-02T10:02:27.451Z,52.87
2017-08-02T10:03:27.182Z,51.04
2017-08-02T10:04:27.510Z,51.14
2017-08-02T10:05:27.551Z,49.71
2017-08-02T10:07:27.616Z,47.63
2017-08-02T10:08:27.657Z,46.97
2017-08-02T10:09:27.672Z,45.86
2017-08-02T10:10:27.721Z,45.29
2017-08-02T10:11:27.737Z,45.88
2017-08-02T10:12:27.783Z,46.22
2017-08-02T10:13:27.800Z,45.8
2017-08-02T10:14:42.443Z,45.12
2017-08-02T10:15:27.872Z,44.45
2017-08-02T10:16:27.910Z,44.06
2017-08-02T10:18:27.957Z,47.4
2017-08-02T10:19:28.005Z,47.57
2017-08-02T10:21:28.074Z,49.85
2017-08-02T10:22:28.110Z,51.81
2017-08-02T10:23:28.141Z,50.73
2017-08-02T10:24:28.166Z,50.17
2017-08-02T10:25:28.197Z,48.99
2017-08-02T10:26:28.238Z,48.9
2017-08-02T10:27:27.955Z,49.29
2017-08-02T10:28:28.319Z,50.9
2017-08-02T10:29:28.322Z,49.95
2017-08-02T10:30:42.963Z,50.32
2017-08-02T10:31:28.401Z,49.82
2017-08-02T10:32:28.432Z,50.81
2017-08-02T10:33:28.450Z,53.25
2017-08-02T10:34:28.496Z,52.34
2017-08-02T10:36:28.553Z,52.41
2017-08-02T10:37:28.586Z,52.19
2017-08-02T10:38:28.314Z,55.29
2017-08-02T10:39:28.654Z,55.29
2017-08-02T10:40:28.376Z,54.99
2017-08-02T10:41:28.398Z,54.77
2017-08-02T10:42:28.741Z,55.16
2017-08-02T10:43:28.768Z,54.77
2017-08-02T10:44:28.813Z,54.7
2017-08-02T10:45:43.440Z,53.92
2017-08-02T10:46:28.868Z,54.5
2017-08-02T10:47:28.907Z,53.75
2017-08-02T10:48:28.942Z,52.97
2017-08-02T10:49:28.971Z,50.78
2017-08-02T10:50:29.002Z,52.27
2017-08-02T10:51:29.034Z,51.51
2017-08-02T10:52:29.053Z,50.32
2017-08-02T10:53:29.104Z,51.68
2017-08-02T10:54:29.126Z,51.76
2017-08-02T10:55:29.171Z,51.49
2017-08-02T10:56:29.182Z,50.78
2017-08-02T10:59:29.283Z,52.61
2017-08-02T11:00:29.319Z,51.34
2017-08-02T11:01:29.354Z,52.97
2017-08-02T11:02:29.370Z,53.46
2017-08-02T11:03:29.413Z,53.95
2017-08-02T11:04:29.450Z,53.17
2017-08-02T11:05:29.469Z,54.02
2017-08-02T11:06:29.198Z,54.41
2017-08-02T11:07:29.224Z,53.85
2017-08-02T11:08:29.578Z,54.31
2017-08-02T11:09:29.593Z,54.5
2017-08-02T11:10:29.643Z,54.21
2017-08-02T11:11:29.651Z,54.6
2017-08-02T11:12:29.701Z,54.93
2017-08-02T11:13:29.728Z,55.32
2017-08-02T11:14:29.747Z,53.63
2017-08-02T11:15:29.797Z,54.41
2017-08-02T11:16:29.813Z,54.21
2017-08-02T11:17:44.448Z,54.5
2017-08-02T11:18:29.573Z,54.21
2017-08-02T11:19:29.917Z,53.73
2017-08-02T11:20:29.945Z,54.31
2017-08-02T11:21:29.978Z,55.09
2017-08-02T11:22:29.700Z,55.75
2017-08-02T11:23:29.726Z,55.38
2017-08-02T11:24:29.752Z,54.8
2017-08-02T11:25:30.103Z,54.41
2017-08-02T11:26:29.826Z,55.87
2017-08-02T11:27:30.154Z,54.9
2017-08-02T11:28:30.194Z,54.83
2017-08-02T11:29:30.215Z,52.61
2017-08-02T11:30:29.951Z,53.07
2017-08-02T11:31:30.275Z,54.44
2017-08-02T11:32:30.328Z,54.14
2017-08-02T11:33:44.957Z,54.7
2017-08-02T11:34:30.380Z,54.5
2017-08-02T11:35:30.412Z,53.17
2017-08-02T11:36:30.448Z,54.34
2017-08-02T11:38:30.500Z,55.09
2017-08-02T11:39:30.836Z,55.65
2017-08-02T11:40:30.562Z,54.58
2017-08-02T11:41:30.611Z,55.94
2017-08-02T11:42:30.632Z,55.16
2017-08-02T11:43:30.660Z,56.14
2017-08-02T11:44:30.695Z,55.16
2017-08-02T11:45:30.728Z,54.02
2017-08-02T11:46:30.745Z,54.21
2017-08-02T11:47:30.791Z,53.34
2017-08-02T11:48:30.823Z,53.44
2017-08-02T11:49:45.448Z,54.5
2017-08-02T11:50:30.558Z,55.58
2017-08-02T11:51:30.916Z,53.36
2017-08-02T11:52:30.938Z,53.88
2017-08-02T11:53:30.974Z,53.95
2017-08-02T11:54:31.004Z,54.34
2017-08-02T11:55:31.038Z,53.39
2017-08-02T11:56:30.751Z,51.43
2017-08-02T11:57:31.093Z,51.34
2017-08-02T11:58:31.121Z,51.17
2017-08-02T11:59:31.170Z,51.56
2017-08-02T12:00:31.202Z,51.56
2017-08-02T12:01:31.224Z,52.54
2017-08-02T12:03:31.279Z,51.95
2017-08-02T12:04:31.315Z,51.17
2017-08-02T12:05:45.944Z,54.2
2017-08-02T12:06:31.377Z,53.32
2017-08-02T12:07:31.425Z,52.34
2017-08-02T12:08:31.442Z,52.64
2017-08-02T12:09:31.473Z,51.46
2017-08-02T12:10:31.502Z,51.66
2017-08-02T12:11:31.540Z,51.49
2017-08-02T12:12:31.558Z,51.27
2017-08-02T12:13:31.605Z,51.46
2017-08-02T12:14:31.633Z,51.56
2017-08-02T12:15:31.668Z,51.56
2017-08-02T12:17:31.723Z,52.44
2017-08-02T12:18:31.741Z,50.59
2017-08-02T12:19:31.792Z,50.68
2017-08-02T12:20:46.417Z,51.07
2017-08-02T12:21:31.848Z,52.44
2017-08-02T12:22:31.871Z,50.88
2017-08-02T12:23:31.930Z,51.82
2017-08-02T12:24:31.942Z,51.53
2017-08-02T12:25:31.966Z,51.51
2017-08-02T12:26:32.005Z,51.82
2017-08-02T12:27:32.036Z,51.14
2017-08-02T12:28:32.070Z,51.8
2017-08-02T12:29:32.101Z,52.31
2017-08-02T12:30:31.820Z,50.46
2017-08-02T12:31:31.841Z,49.68
2017-08-02T12:32:31.889Z,51.53
2017-08-02T12:33:32.226Z,51.14
2017-08-02T12:34:32.255Z,49.98
2017-08-02T12:36:32.322Z,52.17
2017-08-02T12:37:32.345Z,53.5
2017-08-02T12:38:32.066Z,52.66
2017-08-02T12:39:32.418Z,51.29
2017-08-02T12:40:32.430Z,52
2017-08-02T12:41:32.167Z,52.07
2017-08-02T12:43:32.223Z,51.43
2017-08-02T12:44:32.569Z,50.26
2017-08-02T12:45:32.597Z,50.78
2017-08-02T12:46:32.633Z,50.29
2017-08-02T12:47:32.660Z,51.04
2017-08-02T12:48:32.376Z,51.37
2017-08-02T12:49:32.415Z,51.46
2017-08-02T12:50:32.751Z,50.88
2017-08-02T12:51:32.779Z,50.88
2017-08-02T12:52:47.412Z,51.56
2017-08-02T12:53:32.846Z,52.22
2017-08-02T12:54:32.880Z,52.31
2017-08-02T12:55:32.905Z,51.92
2017-08-02T12:56:32.937Z,51.43
2017-08-02T12:57:32.969Z,52.29
2017-08-02T12:58:32.999Z,52.75
2017-08-02T12:59:33.017Z,52.75
2017-08-02T13:00:33.060Z,53.97
2017-08-02T13:01:33.091Z,54.46
2017-08-02T13:02:33.125Z,53.41
2017-08-02T13:03:33.152Z,54.48
2017-08-02T13:04:33.182Z,53.63
2017-08-02T13:05:33.208Z,52.58
2017-08-02T13:06:33.245Z,52.97
2017-08-02T13:07:33.272Z,52.46
2017-08-02T13:08:47.904Z,52.63
2017-08-02T13:09:33.029Z,55.16
2017-08-02T13:10:33.368Z,53.92
2017-08-02T13:11:33.091Z,53.14
2017-08-02T13:12:33.428Z,52.73
2017-08-02T13:13:33.450Z,53.02
2017-08-02T13:14:33.517Z,53.73
2017-08-02T13:15:33.523Z,53.73
2017-08-02T13:16:33.553Z,52.85
2017-08-02T13:17:33.588Z,51.9
2017-08-02T13:19:33.647Z,52.09
2017-08-02T13:20:33.676Z,52.95
2017-08-02T13:21:33.705Z,53.05
2017-08-02T13:22:33.739Z,52.48
2017-08-02T13:23:33.776Z,52.87
2017-08-02T13:24:48.397Z,52.66
2017-08-02T13:25:33.827Z,52.07
2017-08-02T13:26:33.863Z,53.24
2017-08-02T13:27:33.889Z,53.63
2017-08-02T13:28:33.615Z,52.68
2017-08-02T13:29:33.952Z,53.27
2017-08-02T13:30:33.990Z,53.58
2017-08-02T13:31:34.022Z,52.41
2017-08-02T13:32:34.053Z,51.34
2017-08-02T13:33:34.075Z,52.41
2017-08-02T13:34:34.110Z,50.73
2017-08-02T13:36:34.168Z,53.09
2017-08-02T13:37:33.892Z,53.19